Pagrindinis puslapis
METAR-TAF:

METAR-TAF

Oro uostai :

Port Morsbis, Papua Naujoji Gvinėja

platuma: 09-26S, ilguma: 147-13E, Aukštis: 38 m

Dabartinis oras

Ataskaita buvo paskelbta 1 valandą ir 14 minutes, ne 04:00 UTC
Vėjas 10 kt iš Vakarų
Temperatūra 32°C
Drėgmė 67%
Slėgis 1006 hPa
Matomumas 10 km arba daugiau
Išsisklaidę debesys ne aukštis 4000 ft
dūmai, migla

METAR: AYPY 120400Z 26010KT 9999 FU HZ SCT040 32/25 Q1006

Laikas: 15:14 (05:14 UTC)

Prognozė

Ataskaita buvo paskelbta 14 valandos ir 12 minutes, ne 15:02 UTC
Prognozė galioja nuo 11 metu 18 UTC su 12 metu 18 UTC
Vėjas 5 kt iš Šiaurės/Šiaurės Vakarų
Matomumas 10 km arba daugiau
Išsisklaidę debesys ne aukštis 3000 ft
Nuo 11 metu 2200 UTC
Vėjas 10 kt iš Šiaurės Vakarų
Matomumas: 1006 m
Išsisklaidę debesys ne aukštis 2500 ft
Išsisklaidę debesys ne aukštis 13000 ft

TAF: AYPY 111502Z 1118/1218 34005KT 9999 SCT030 FM112200 32010KT 9999 SCT025 SCT130 T 24 26 30 31 Q 1005 1006 1007 1006 -------------------------------------------------------------

Orai ataskaitas ir orų prognozės (METAR, TAF).

turimą stotys yra geltonos ir raudonos taškus žemėlapyje.

Perkelti pele per norėdami pamatyti stoties vardą.

Tada spustelėkite, norėdami matyti oro stebėjimo ir prognozės.

Norėdami pakeisti žemėlapį: spustelėkite ant žalios mygtukų su juodo kryžiaus žemyn,; žalią mygtuką su brūkšneliu, jei norite nutolinti; arba žalių rodyklių gretimoms žemėlapius.


METAR-TAF: